Latest Weather Observations for Pearce

IDW60901

Issued at 4:41 pm WST Wednesday 23 May 2018 (issued every 10 minutes, with the page automatically refreshed every 10 minutes)

About weather observations | Map of Perth area stations | Latest observations for Perth area | Other Formats
Station Details ID: 009053 Name: PEARCE RAAF Lat: -31.67 Lon: 116.02 Height: 40.0 m
Data from the previous 72 hours. | See also: Recent months at Pearce
Date/Time
WST
Temp
°C
App
Temp
°C
Dew
Point
°C
Rel
Hum
%
Delta-T
°C
Wind Press
QNH
hPa
Press
MSL
hPa
Rain since
9am
mm
Dir  Spd
km/h
Gust
km/h
Spd
kts
Gust
kts
23/04:30pm 25.6 20.0 -2.9 15 12.5 N 17 22 9 12 1015.5 1015.4 0.0
23/04:00pm 27.9 23.6 -2.0 14 13.6 NNE 11 15 6 8 1015.6 1015.5 0.0
23/03:30pm 27.8 22.7 -2.1 14 13.6 NNW 15 20 8 11 1015.7 1015.6 0.0
23/03:00pm 27.8 21.2 -3.1 13 13.7 N 22 32 12 17 1015.9 1015.8 0.0
23/02:30pm 27.7 21.8 -2.2 14 13.5 N 19 30 10 16 1016.1 1016.0 0.0
23/02:00pm 27.6 21.6 -3.3 13 13.7 N 19 28 10 15 1016.2 1016.1 0.0
23/01:30pm 27.8 22.3 -2.1 14 13.6 N 17 20 9 11 1016.6 1016.5 0.0
23/01:00pm 26.4 20.2 -3.2 14 13.0 N 20 33 11 18 1017.0 1016.9 0.0
23/12:30pm 27.6 22.2 -1.3 15 13.3 NNE 17 26 9 14 1017.6 1017.5 0.0
23/12:00pm 27.0 21.2 -0.1 17 12.6 NNE 20 26 11 14 1018.3 1018.2 0.0
23/11:30am 26.6 21.1 0.4 18 12.3 NNE 19 26 10 14 1019.0 1018.9 0.0
23/11:00am 24.7 19.5 0.3 20 11.3 NNE 17 24 9 13 1019.6 1019.5 0.0
23/10:30am 23.8 18.7 0.8 22 10.7 NNE 17 26 9 14 1020.0 1019.9 0.0
23/10:00am 22.5 17.3 0.4 23 10.0 NNW 17 22 9 12 1020.3 1020.2 0.0
23/09:30am 22.4 17.2 0.3 23 10.0 NNE 17 22 9 12 1020.3 1020.2 0.0
23/09:00am 20.4 16.4 0.3 26 8.9 NNE 11 19 6 10 1020.5 1020.4 0.0
23/08:30am 18.8 14.4 0.4 29 8.1 NE 13 22 7 12 1020.5 1020.4 0.0
23/08:00am 17.5 13.1 0.2 31 7.5 NNE 13 20 7 11 1020.5 1020.4 0.0
23/07:30am 16.7 12.2 -0.5 31 7.3 NNE 13 20 7 11 1020.2 1020.1 0.0
23/07:00am 16.8 10.2 -0.4 31 7.3 NE 24 39 13 21 1019.8 1019.7 0.0
23/06:30am 16.7 11.9 -0.1 32 7.2 NE 15 24 8 13 1019.9 1019.8 0.0
23/06:00am 15.8 11.7 0.0 34 6.7 N 11 15 6 8 1019.9 1019.8 0.0
23/05:30am 15.6 11.9 0.2 35 6.6 NNW 9 15 5 8 1019.9 1019.8 0.0
23/05:00am 14.9 12.1 -0.4 35 6.4 NW 4 6 2 3 1019.8 1019.7 0.0
23/04:30am 16.1 12.9 -0.2 33 6.9 E 6 9 3 5 1020.1 1020.0 0.0
23/04:00am 16.8 13.1 0.0 32 7.2 NE 9 13 5 7 1020.2 1020.1 0.0
23/03:30am 15.4 12.2 -0.4 34 6.7 NW 6 9 3 5 1020.3 1020.2 0.0
23/03:00am 17.9 12.7 0.1 30 7.7 ENE 17 22 9 12 1020.3 1020.2 0.0
23/02:30am 18.2 12.4 -0.1 29 8.0 ENE 20 28 11 15 1020.2 1020.1 0.0
23/02:00am 18.3 12.7 0.0 29 8.0 ENE 19 28 10 15 1020.4 1020.3 0.0
23/01:30am 18.6 13.0 -0.2 28 8.2 ENE 19 26 10 14 1020.5 1020.4 0.0
23/01:00am 18.9 13.3 0.0 28 8.3 ENE 19 24 10 13 1020.7 1020.6 0.0
23/12:30am 18.9 13.3 0.0 28 8.3 ENE 19 24 10 13 1020.9 1020.8 0.0
23/12:00am 18.4 12.8 0.1 29 8.0 ENE 19 24 10 13 1021.1 1021.0 0.0
 
Date/Time
WST
Temp
°C
App
Temp
°C
Dew
Point
°C
Rel
Hum
%
Delta-T
°C
Wind Press
QNH
hPa
Press
MSL
hPa
Rain since
9am
mm
Dir  Spd
km/h
Gust
km/h
Spd
kts
Gust
kts
22/11:30pm 18.1 12.9 -0.2 29 7.9 ENE 17 22 9 12 1021.3 1021.2 0.0
22/11:00pm 18.6 12.8 -0.2 28 8.2 E 20 24 11 13 1021.3 1021.2 0.0
22/10:30pm 18.7 13.5 -0.2 28 8.2 ENE 17 20 9 11 1021.5 1021.4 0.0
22/10:00pm 18.8 14.3 -0.6 27 8.4 ENE 13 17 7 9 1021.6 1021.5 0.0
22/09:30pm 18.8 14.7 -0.1 28 8.3 ENE 11 15 6 8 1021.5 1021.4 0.0
22/09:08pm 18.2 14.8 2.1 34 7.3 ENE 9 15 5 8 1021.4 1021.3 0.0
22/09:00pm 13.1 10.4 3.5 52 4.3 E 7 9 4 5 1021.5 1021.4 0.0
22/08:30pm 11.0 8.5 1.8 53 3.9 ENE 4 9 2 5 1021.4 1021.3 0.0
22/08:22pm 11.8 8.0 -0.4 43 5.0 ENE 9 17 5 9 1021.3 1021.2 0.0
22/08:00pm 16.9 13.7 0.5 33 7.1 E 7 11 4 6 1021.1 1021.0 0.0
22/07:30pm 19.2 15.6 0.8 29 8.2 E 9 11 5 6 1021.0 1020.9 0.0
22/07:00pm 18.1 15.5 0.7 31 7.7 SSE 4 7 2 4 1021.0 1020.9 0.0
22/06:30pm 18.6 14.6 0.2 29 8.1 ENE 11 15 6 8 1020.7 1020.6 0.0
22/06:00pm 21.5 17.2 1.2 26 9.3 ENE 13 15 7 8 1020.4 1020.3 0.0
22/05:30pm 24.0 20.4 0.4 21 10.9 E 9 11 5 6 1020.3 1020.2 0.0
22/05:00pm 25.7 22.2 -1.2 17 12.2 NNE 7 11 4 6 1020.2 1020.1 0.0
22/04:30pm 26.6 23.3 -1.3 16 12.7 NE 6 13 3 7 1020.1 1020.0 0.0
22/04:00pm 27.0 23.6 -1.8 15 13.0 NNW 6 13 3 7 1020.0 1019.9 0.0
22/03:30pm 27.1 22.7 -2.7 14 13.3 NNE 11 19 6 10 1020.1 1020.0 0.0
22/03:00pm 27.3 22.6 -1.6 15 13.1 NNW 13 20 7 11 1020.1 1020.0 0.0
22/02:30pm 27.3 22.9 -2.5 14 13.4 NNW 11 19 6 10 1020.1 1020.0 0.0
22/02:00pm 27.3 23.1 -0.7 16 12.9 NNE 11 26 6 14 1020.4 1020.3 0.0
22/01:30pm 27.3 23.9 1.7 19 12.4 N 9 20 5 11 1020.7 1020.6 0.0
22/01:00pm 27.0 22.5 2.1 20 12.1 NNE 15 20 8 11 1021.3 1021.2 0.0
22/12:30pm 26.4 21.5 2.3 21 11.7 N 17 24 9 13 1021.9 1021.8 0.0
22/12:00pm 25.9 20.7 2.6 22 11.3 N 19 26 10 14 1022.6 1022.5 0.0
22/11:30am 25.5 20.5 3.5 24 10.9 N 19 26 10 14 1023.2 1023.1 0.0
22/11:00am 24.6 20.3 3.3 25 10.4 NNE 15 24 8 13 1023.6 1023.5 0.0
22/10:30am 23.5 19.7 4.0 28 9.6 NNE 13 22 7 12 1024.0 1023.9 0.0
22/10:00am 22.1 17.0 2.8 28 9.1 NNE 19 26 10 14 1024.4 1024.3 0.0
22/09:30am 20.7 16.1 1.6 28 8.8 NNE 15 22 8 12 1024.6 1024.5 0.0
22/09:00am 19.5 15.3 1.9 31 8.0 N 13 20 7 11 1024.6 1024.5 0.0
22/08:30am 18.2 13.6 -1.1 27 8.2 N 13 20 7 11 1024.6 1024.5 0.0
22/08:00am 17.1 13.3 1.9 36 6.8 N 11 19 6 10 1024.5 1024.4 0.0
22/07:30am 16.3 12.1 1.6 37 6.5 NNE 13 28 7 15 1024.3 1024.2 0.0
22/07:00am 16.3 11.0 1.6 37 6.5 NE 19 24 10 13 1024.0 1023.9 0.0
22/06:30am 15.9 11.7 1.6 38 6.3 NNE 13 24 7 13 1024.1 1024.0 0.0
22/06:00am 15.6 11.0 1.4 38 6.2 N 15 24 8 13 1024.2 1024.1 0.0
22/05:30am 15.9 12.1 2.0 39 6.2 NNW 11 15 6 8 1024.1 1024.0 0.0
22/05:00am 16.1 12.3 1.8 38 6.3 NNE 11 20 6 11 1024.1 1024.0 0.0
22/04:30am 16.8 11.7 0.9 34 7.0 NNE 17 28 9 15 1023.9 1023.8 0.0
22/04:00am 17.3 11.5 -0.4 30 7.5 NE 20 32 11 17 1023.8 1023.7 0.0
22/03:30am 17.1 11.1 1.1 34 7.1 ENE 22 32 12 17 1023.7 1023.6 0.0
22/03:00am 17.4 11.4 -1.3 28 7.8 NE 20 33 11 18 1023.9 1023.8 0.0
22/02:30am 17.3 12.5 0.5 32 7.3 NE 15 22 8 12 1024.1 1024.0 0.0
22/02:00am 17.6 12.9 1.2 33 7.2 ENE 15 24 8 13 1024.2 1024.1 0.0
22/01:30am 14.6 11.5 1.5 41 5.7 NE 7 13 4 7 1024.4 1024.3 0.0
22/01:00am 17.6 13.6 3.1 38 6.7 ENE 13 20 7 11 1024.4 1024.3 0.0
22/12:30am 17.4 12.7 1.0 33 7.2 ENE 15 22 8 12 1024.4 1024.3 0.0
22/12:00am 16.6 12.5 2.2 38 6.4 ENE 13 20 7 11 1024.6 1024.5 0.0
 
Date/Time
WST
Temp
°C
App
Temp
°C
Dew
Point
°C
Rel
Hum
%
Delta-T
°C
Wind Press
QNH
hPa
Press
MSL
hPa
Rain since
9am
mm
Dir  Spd
km/h
Gust
km/h
Spd
kts
Gust
kts
21/11:55pm 15.2 11.3 1.4 39 6.0 NE 11 17 6 9 1024.6 1024.5 0.0
21/11:30pm 9.8 6.8 0.9 54 3.7 NNE 6 13 3 7 1025.0 1024.9 0.0
21/11:00pm 13.0 10.9 3.9 54 4.1 E 4 11 2 6 1025.1 1025.0 0.0
21/10:30pm 12.1 10.7 3.3 55 3.9 CALM 0 6 0 3 1025.2 1025.1 0.0
21/10:00pm 13.4 12.2 4.6 55 4.0 CALM 0 0 0 0 1025.1 1025.0 0.0
21/09:30pm 10.3 6.7 0.9 52 3.9 WSW 9 11 5 6 1025.3 1025.2 0.0
21/09:00pm 11.3 9.7 2.6 55 3.7 CALM 0 0 0 0 1025.0 1024.9 0.0
21/08:30pm 13.7 12.1 2.6 47 4.9 CALM 0 0 0 0 1025.1 1025.0 0.0
21/08:00pm 15.0 13.2 3.2 45 5.3 S 2 9 1 5 1025.0 1024.9 0.0
21/07:30pm 18.6 15.9 2.9 35 7.3 E 6 7 3 4 1024.8 1024.7 0.0
21/07:00pm 18.9 16.2 3.5 36 7.2 E 7 11 4 6 1024.5 1024.4 0.0
21/06:30pm 19.4 16.1 2.7 33 7.8 E 9 11 5 6 1024.3 1024.2 0.0
21/06:00pm 21.4 18.1 2.6 29 8.8 E 9 9 5 5 1024.1 1024.0 0.0
21/05:30pm 22.3 19.0 2.4 27 9.4 ENE 9 13 5 7 1023.9 1023.8 0.0
21/05:00pm 23.7 19.7 3.1 26 9.9 ENE 13 19 7 10 1023.6 1023.5 0.0
21/04:30pm 24.5 20.2 3.2 25 10.4 ENE 15 20 8 11 1023.6 1023.5 0.0
21/04:00pm 24.8 20.8 2.9 24 10.6 E 13 20 7 11 1023.6 1023.5 0.0
21/03:30pm 25.2 21.1 2.0 22 11.1 NE 13 22 7 12 1023.6 1023.5 0.0
21/03:00pm 25.4 21.4 2.8 23 11.0 ENE 13 22 7 12 1023.7 1023.6 0.0
21/02:30pm 25.4 20.5 2.2 22 11.2 ENE 17 26 9 14 1023.9 1023.8 0.0
21/02:00pm 25.3 20.7 3.9 25 10.6 NNE 17 24 9 13 1024.2 1024.1 0.0
21/01:30pm 25.0 20.5 4.2 26 10.4 NE 17 30 9 16 1024.6 1024.5 0.0
21/01:00pm 24.3 19.9 4.6 28 9.8 NE 17 28 9 15 1025.3 1025.2 0.0
21/12:30pm 23.3 18.6 5.2 31 9.1 NNE 19 28 10 15 1025.9 1025.8 0.0
21/12:00pm 23.2 18.4 5.6 32 8.8 NE 20 28 11 15 1026.6 1026.5 0.0
21/11:30am 22.6 18.4 5.5 33 8.6 NE 17 22 9 12 1027.1 1027.1 0.0
21/11:00am 22.2 18.1 6.0 35 8.1 NE 17 26 9 14 1027.7 1027.7 0.0
21/10:30am 21.4 16.9 6.1 37 7.7 NE 19 26 10 14 1028.2 1028.2 0.0
21/10:00am 20.1 16.1 6.5 41 6.8 NE 17 24 9 13 1028.4 1028.4 0.0
21/09:30am 19.0 15.7 6.5 44 6.2 NE 13 22 7 12 1028.8 1028.8 0.0
21/09:00am 17.8 13.9 7.0 49 5.4 NE 17 26 9 14 1028.8 1028.8 0.0
21/08:30am 16.6 12.5 6.4 51 5.0 ENE 17 24 9 13 1028.7 1028.7 0.0
21/08:00am 15.9 11.1 4.9 48 5.2 ENE 19 28 10 15 1028.4 1028.4 0.0
21/07:30am 15.2 10.3 1.7 40 5.9 ENE 17 24 9 13 1028.1 1028.1 0.0
21/07:00am 14.9 11.1 6.0 55 4.2 ENE 15 20 8 11 1027.8 1027.8 0.0
21/06:30am 15.5 11.4 6.2 54 4.5 ENE 17 20 9 11 1027.6 1027.6 0.0
21/06:00am 15.4 11.8 5.0 50 4.9 ENE 13 19 7 10 1027.3 1027.3 0.0
21/05:30am 15.3 12.9 5.2 51 4.8 NE 7 11 4 6 1027.0 1027.0 0.0
21/05:00am 14.5 11.9 6.1 57 4.0 N 9 15 5 8 1026.8 1026.7 0.0
21/04:30am 14.4 12.2 3.2 47 5.0 N 4 11 2 6 1026.6 1026.5 0.0
21/04:00am 16.4 13.5 4.4 45 5.6 N 9 13 5 7 1026.6 1026.5 0.0
21/03:50am 14.5 11.8 3.9 49 4.9 N 7 13 4 7 1026.5 1026.4 0.0
21/03:30am 9.4 6.2 -0.2 51 3.8 NNE 6 7 3 4 1026.5 1026.4 0.0
21/03:22am 9.5 6.1 -0.7 49 4.0 NE 7 15 4 8 1026.5 1026.4 0.0
21/03:00am 14.8 11.6 3.3 46 5.2 ENE 9 17 5 9 1026.5 1026.4 0.0
21/02:30am 12.4 10.4 4.4 58 3.6 SE 4 7 2 4 1026.5 1026.4 0.0
21/02:00am 10.9 6.7 -3.9 35 5.5 S 9 13 5 7 1026.5 1026.4 0.0
21/01:30am 11.9 8.2 -4.7 31 6.1 SSE 6 9 3 5 1026.3 1026.2 0.0
21/01:00am 11.6 7.5 -8.3 24 6.7 SSE 6 7 3 4 1026.2 1026.1 0.0
21/12:30am 11.5 8.2 -8.9 23 6.8 SE 2 7 1 4 1026.3 1026.2 0.0
21/12:00am 10.9 8.2 -5.5 31 5.8 CALM 0 6 0 3 1026.4 1026.3 0.0
 
Date/Time
WST
Temp
°C
App
Temp
°C
Dew
Point
°C
Rel
Hum
%
Delta-T
°C
Wind Press
QNH
hPa
Press
MSL
hPa
Rain since
9am
mm
Dir  Spd
km/h
Gust
km/h
Spd
kts
Gust
kts
20/11:30pm 11.0 7.4 -7.3 27 6.3 NW 4 7 2 4 1026.6 1026.5 0.0
20/11:00pm 8.7 5.2 -2.6 45 4.2 NW 6 11 3 6 1026.7 1026.6 0.0
20/10:30pm 11.1 8.0 -2.3 39 5.2 SE 4 7 2 4 1027.0 1027.0 0.0
20/10:00pm 8.5 7.0 3.1 69 2.3 CALM 0 6 0 3 1027.1 1027.1 0.0
20/09:30pm 12.0 9.2 3.0 54 4.0 N 7 9 4 5 1027.1 1027.1 0.0
20/09:00pm 13.3 11.3 2.5 48 4.7 SE 2 7 1 4 1027.0 1027.0 0.0
20/08:30pm 13.5 11.8 2.1 46 5.0 CALM 0 0 0 0 1027.1 1027.1 0.0
20/08:00pm 11.6 9.7 0.4 46 4.6 CALM 0 0 0 0 1026.9 1026.9 0.0
20/07:58pm 11.7 9.7 -0.1 44 4.8 CALM 0 0 0 0 1026.9 1026.9 0.0
20/07:30pm 16.8 13.9 1.7 36 6.7 E 6 7 3 4 1026.6 1026.5 0.0
20/07:00pm 16.7 13.2 1.2 35 6.8 E 9 11 5 6 1026.5 1026.4 0.0
20/06:30pm 18.4 15.2 1.0 31 7.7 ESE 7 9 4 5 1026.2 1026.1 0.0
20/06:00pm 20.0 16.8 1.0 28 8.5 ESE 7 9 4 5 1026.0 1025.9 0.0
20/05:30pm 21.7 18.1 0.8 25 9.5 ENE 9 13 5 7 1025.8 1025.7 0.0
20/05:00pm 23.0 18.7 0.8 23 10.2 ENE 13 19 7 10 1025.7 1025.6 0.0

Latest Capital City Observations: Canberra | Sydney | Melbourne | Brisbane | Adelaide | Perth | Hobart | Darwin

Other Formats:

Comma delimited format used in spreadsheet applications
http://www.bom.gov.au/fwo/IDW60901/IDW60901.94612.axf

JavaScript Object Notation format (JSON) in row-major order
http://www.bom.gov.au/fwo/IDW60901/IDW60901.94612.json